Charleston, Arkansas
Current Conditions -  °F | °C
As of 4:53 PM on Thursday 18 Dec 2014 (Local Time) from KFSM Reporting Station
Overcast Overcast  
Wind Chill: 38°   Ceiling: 2300
Heat Index: 41°   Visibility: 9mi
Dew Point: 37°   Wind: 5mph
Humidity: 86%   Direction: 70°ENE
Pressure: 30.18"   Gusts: NA
Location:  35.3°N, 94.04°W
Report Text: KFSM 182253Z 07004KT 9SM SCT008 OVC023 05/03 A3018 RMK AO2 SLP220 T00500028
Loading
Personal Weather Stations






























Interactive Weather Map New forecast layout! Learn more

10-Day Weather Forecast

Advertisements
Track Severe Weather on mobile